Time;durP1;ratioP1;P1;durP2;ratioP2;P2;SDS_P1;SDS_P2;PMS_P1;PMS_P2;Temp;Humidity;BMP_temperature;BMP_pressure;BME280_temperature;BME280_humidity;BME280_pressure;Samples;Min_cycle;Max_cycle;Signal;HPM_P1;HPM_P2
2022/07/01 00:02:03;;;;;;;6.20;1.40;;;21.30;99.90;;;;;;6298147;28;20417;-74
2022/07/01 00:05:05;;;;;;;4.90;1.25;;;21.20;99.90;;;;;;6296357;28;20040;-73
2022/07/01 00:08:07;;;;;;;6.90;1.08;;;20.50;99.90;;;;;;6297813;28;20053;-73
2022/07/01 00:11:10;;;;;;;6.85;1.00;;;19.60;99.90;;;;;;6297267;28;20056;-73
2022/07/01 00:14:11;;;;;;;8.77;1.33;;;18.50;99.90;;;;;;6295711;28;20053;-73
2022/07/01 00:17:15;;;;;;;4.78;1.65;;;18.60;99.90;;;;;;6297270;28;20072;-73
2022/07/01 00:20:17;;;;;;;8.20;1.35;;;18.60;99.90;;;;;;6297415;28;20056;-73
2022/07/01 00:23:19;;;;;;;3.53;1.20;;;18.90;99.90;;;;;;6294543;28;20053;-73
2022/07/01 00:26:21;;;;;;;5.88;0.95;;;19.30;99.90;;;;;;6295671;28;20055;-74
2022/07/01 00:29:23;;;;;;;6.63;1.20;;;18.80;99.90;;;;;;6291522;28;20045;-73
2022/07/01 00:32:26;;;;;;;4.63;1.50;;;18.30;99.90;;;;;;6294382;28;20343;-73
2022/07/01 00:35:28;;;;;;;4.30;1.23;;;17.80;99.90;;;;;;6297446;28;20052;-74
2022/07/01 00:38:30;;;;;;;5.22;1.40;;;17.80;99.90;;;;;;6296136;28;20406;-73
2022/07/01 00:41:32;;;;;;;5.03;1.48;;;17.80;99.90;;;;;;6294671;28;20044;-73
2022/07/01 00:44:34;;;;;;;6.07;1.30;;;17.40;99.90;;;;;;6294420;28;20401;-73
2022/07/01 00:47:37;;;;;;;5.05;1.40;;;17.60;99.90;;;;;;6310519;28;20056;-73
2022/07/01 00:50:39;;;;;;;5.78;1.55;;;17.40;99.90;;;;;;6301834;28;20048;-73
2022/07/01 00:53:41;;;;;;;8.48;1.33;;;17.70;99.90;;;;;;6295230;28;20048;-73
2022/07/01 00:56:43;;;;;;;4.57;1.17;;;18.10;99.90;;;;;;6296224;28;20059;-73
2022/07/01 00:59:46;;;;;;;3.53;0.95;;;18.50;99.90;;;;;;6297512;28;20094;-74
2022/07/01 01:02:49;;;;;;;3.92;0.98;;;18.60;99.90;;;;;;6295160;28;20515;-74
2022/07/01 01:05:51;;;;;;;5.65;1.02;;;18.70;99.90;;;;;;6295165;28;20048;-73
2022/07/01 01:08:53;;;;;;;2.85;1.13;;;19.20;99.90;;;;;;6289490;28;20130;-73
2022/07/01 01:11:57;;;;;;;3.20;0.80;;;19.20;99.90;;;;;;6295245;28;20509;-73
2022/07/01 01:14:59;;;;;;;5.30;1.17;;;19.60;99.90;;;;;;6295604;28;20054;-73
2022/07/01 01:18:03;;;;;;;4.13;1.25;;;19.50;99.90;;;;;;6296301;28;20048;-73
2022/07/01 01:21:06;;;;;;;2.97;0.90;;;19.10;99.90;;;;;;6294826;28;20048;-73
2022/07/01 01:24:09;;;;;;;2.75;0.70;;;18.90;99.90;;;;;;6290723;28;20045;-73
2022/07/01 01:27:11;;;;;;;1.80;0.75;;;19.20;99.90;;;;;;6295833;28;20049;-73
2022/07/01 01:30:13;;;;;;;3.72;0.90;;;19.10;99.90;;;;;;6294918;28;20494;-73
2022/07/01 01:33:15;;;;;;;4.97;1.00;;;18.80;99.90;;;;;;6294999;28;20044;-72
2022/07/01 01:36:18;;;;;;;4.10;0.90;;;19.00;99.90;;;;;;6295888;28;20421;-73
2022/07/01 01:39:21;;;;;;;2.00;0.55;;;19.10;99.90;;;;;;6293469;28;20054;-73
2022/07/01 01:42:23;;;;;;;1.38;0.60;;;19.30;99.90;;;;;;6295345;28;20048;-73
2022/07/01 01:45:25;;;;;;;3.92;0.82;;;19.00;99.90;;;;;;6293111;28;20040;-73
2022/07/01 01:48:26;;;;;;;2.13;0.60;;;18.50;99.90;;;;;;6286457;28;20509;-72
2022/07/01 01:51:30;;;;;;;1.15;0.55;;;18.30;99.90;;;;;;6280791;28;20049;-72
2022/07/01 01:54:32;;;;;;;2.50;1.00;;;18.00;99.90;;;;;;6295575;28;20460;-73
2022/07/01 01:57:34;;;;;;;2.28;0.65;;;17.90;99.90;;;;;;6295996;28;20596;-73
2022/07/01 02:00:36;;;;;;;1.48;0.50;;;18.40;99.90;;;;;;6293821;28;20052;-73
2022/07/01 02:03:38;;;;;;;2.53;0.60;;;18.80;99.90;;;;;;6294868;28;20064;-73
2022/07/01 02:06:41;;;;;;;2.90;0.75;;;18.40;99.90;;;;;;6294375;28;20481;-72
2022/07/01 02:09:43;;;;;;;2.90;0.68;;;17.90;99.90;;;;;;6294542;28;20057;-72
2022/07/01 02:12:47;;;;;;;2.80;0.70;;;17.60;99.90;;;;;;6295136;28;20051;-73
2022/07/01 02:15:49;;;;;;;3.22;0.95;;;17.20;99.90;;;;;;6294285;28;20052;-73
2022/07/01 02:18:51;;;;;;;3.33;0.95;;;17.00;99.90;;;;;;6294728;28;20551;-72
2022/07/01 02:21:54;;;;;;;3.75;1.27;;;16.90;99.90;;;;;;6293539;28;20644;-73
2022/07/01 02:24:56;;;;;;;3.35;1.33;;;16.80;99.90;;;;;;6292990;28;20052;-72
2022/07/01 02:27:58;;;;;;;2.25;1.23;;;16.90;99.90;;;;;;6295236;28;20044;-72
2022/07/01 02:31:02;;;;;;;2.33;1.40;;;17.00;99.90;;;;;;6293248;28;20106;-72
2022/07/01 02:34:04;;;;;;;;;;;16.90;99.90;;;;;;6294541;28;20052;-72
2022/07/01 02:37:08;;;;;;;7.50;1.95;;;16.80;99.90;;;;;;6327499;28;19924;-72
2022/07/01 02:40:12;;;;;;;5.95;1.80;;;16.80;99.90;;;;;;6295218;28;20048;-72
2022/07/01 02:43:15;;;;;;;3.95;1.40;;;17.00;99.90;;;;;;6294134;28;20041;-72
2022/07/01 02:46:17;;;;;;;3.97;1.45;;;17.00;99.90;;;;;;6282558;28;20477;-72
2022/07/01 02:49:19;;;;;;;4.35;1.77;;;17.00;99.90;;;;;;6293875;28;20049;-72
2022/07/01 02:52:23;;;;;;;5.18;1.35;;;16.90;99.90;;;;;;6293344;28;20060;-72
2022/07/01 02:55:25;;;;;;;4.65;1.50;;;16.80;99.90;;;;;;6294805;28;20041;-72
2022/07/01 02:58:26;;;;;;;3.08;1.58;;;16.90;99.90;;;;;;6298437;28;20394;-72
2022/07/01 03:01:28;;;;;;;5.88;1.52;;;17.00;99.90;;;;;;6297023;28;20071;-72
2022/07/01 03:04:30;;;;;;;2.15;1.15;;;17.00;99.90;;;;;;6298256;28;20040;-72
2022/07/01 03:07:34;;;;;;;6.53;1.40;;;17.00;99.90;;;;;;6297966;28;20056;-71
2022/07/01 03:10:36;;;;;;;4.10;1.83;;;17.10;99.90;;;;;;6299120;28;20051;-72
2022/07/01 03:13:38;;;;;;;3.92;1.80;;;17.20;99.90;;;;;;6298656;28;20041;-71
2022/07/01 03:16:41;;;;;;;4.35;2.33;;;17.20;99.90;;;;;;6298772;28;20052;-71
2022/07/01 03:19:43;;;;;;;3.70;1.70;;;17.10;99.90;;;;;;6297833;28;20052;-71
2022/07/01 03:22:47;;;;;;;3.70;2.50;;;17.10;99.90;;;;;;6298618;28;20057;-71
2022/07/01 03:25:49;;;;;;;4.18;2.85;;;17.20;99.90;;;;;;6295834;28;20120;-71
2022/07/01 03:28:51;;;;;;;3.05;2.45;;;17.40;99.90;;;;;;6296796;28;20674;-71
2022/07/01 03:31:52;;;;;;;6.53;2.30;;;17.40;99.90;;;;;;6286757;28;20048;-71
2022/07/01 03:34:55;;;;;;;3.17;2.25;;;17.30;99.90;;;;;;6299176;28;20049;-71
2022/07/01 03:37:58;;;;;;;2.78;1.98;;;17.30;99.90;;;;;;6298616;28;20052;-71
2022/07/01 03:41:00;;;;;;;3.10;1.80;;;17.30;99.90;;;;;;6288426;28;20406;-71
2022/07/01 03:44:02;;;;;;;3.90;1.63;;;17.20;99.90;;;;;;6329274;28;20052;-71
2022/07/01 03:47:05;;;;;;;4.32;1.33;;;17.20;99.90;;;;;;6297433;28;20048;-71
2022/07/01 03:50:08;;;;;;;3.85;1.50;;;17.30;99.90;;;;;;6297294;28;20064;-71
2022/07/01 03:56:31;;;;;;;4.95;2.25;;;17.60;99.90;;;;;;6297846;28;20386;-72
2022/07/01 03:59:35;;;;;;;4.03;2.22;;;17.60;99.90;;;;;;6297276;28;20414;-71
2022/07/01 04:02:37;;;;;;;4.15;1.75;;;17.60;99.90;;;;;;6296712;28;20056;-71
2022/07/01 04:05:40;;;;;;;2.97;1.85;;;17.50;99.90;;;;;;6294928;28;20049;-71
2022/07/01 04:08:43;;;;;;;2.15;1.90;;;17.50;99.90;;;;;;6297369;28;20055;-71
2022/07/01 04:11:48;;;;;;;2.38;1.63;;;17.40;99.90;;;;;;6298465;28;20044;-71
2022/07/01 04:14:50;;;;;;;3.45;1.70;;;17.30;99.90;;;;;;6295373;28;20049;-71
2022/07/01 04:17:52;;;;;;;4.50;1.80;;;17.10;99.90;;;;;;6296918;28;20049;-71
2022/07/01 04:24:15;;;;;;;3.17;2.35;;;17.00;99.90;;;;;;6296534;28;20057;-72
2022/07/01 04:27:17;;;;;;;4.22;2.95;;;16.90;99.90;;;;;;6295910;28;20052;-72
2022/07/01 04:30:19;;;;;;;3.80;2.72;;;16.90;99.90;;;;;;6297851;28;20041;-72
2022/07/01 04:33:21;;;;;;;3.63;1.77;;;16.80;99.90;;;;;;6296825;28;20051;-72
2022/07/01 04:36:22;;;;;;;3.03;1.90;;;16.80;99.90;;;;;;6295804;28;20044;-72
2022/07/01 04:39:26;;;;;;;2.28;1.70;;;17.00;99.90;;;;;;6296037;28;20405;-72
2022/07/01 04:42:28;;;;;;;3.70;2.30;;;17.10;99.90;;;;;;6295618;28;20405;-72
2022/07/01 04:45:30;;;;;;;2.97;1.88;;;17.10;99.90;;;;;;6295384;28;20489;-71
2022/07/01 04:48:31;;;;;;;4.80;2.88;;;17.00;99.90;;;;;;6296407;28;20052;-71
2022/07/01 04:51:34;;;;;;;2.70;2.00;;;17.00;99.90;;;;;;6296393;28;20052;-71
2022/07/01 04:54:38;;;;;;;2.90;1.60;;;17.00;99.90;;;;;;6296086;28;20052;-72
2022/07/01 04:57:41;;;;;;;4.85;3.53;;;17.20;99.90;;;;;;6296720;28;20052;-71
2022/07/01 05:00:43;;;;;;;5.15;3.97;;;17.30;99.90;;;;;;6295860;28;20834;-71
2022/07/01 05:03:45;;;;;;;2.97;2.22;;;17.30;99.90;;;;;;6296003;28;20409;-71
2022/07/01 05:06:48;;;;;;;4.25;3.85;;;17.30;99.90;;;;;;6295559;28;20498;-72
2022/07/01 05:09:51;;;;;;;5.60;4.50;;;17.50;99.90;;;;;;6295684;28;20057;-72
2022/07/01 05:12:53;;;;;;;5.45;4.85;;;17.60;99.90;;;;;;6294869;28;20051;-71
2022/07/01 05:15:55;;;;;;;9.38;5.95;;;17.60;99.90;;;;;;6294303;28;20062;-71
2022/07/01 05:22:16;;;;;;;6.13;5.63;;;17.40;99.90;;;;;;6290058;28;20048;-71
2022/07/01 05:25:19;;;;;;;8.52;7.63;;;17.30;99.90;;;;;;6294131;28;20571;-71
2022/07/01 05:28:21;;;;;;;10.40;8.98;;;17.30;99.90;;;;;;6296539;28;20059;-71
2022/07/01 05:31:23;;;;;;;14.05;10.20;;;17.30;99.90;;;;;;6294600;28;20056;-71
2022/07/01 05:34:25;;;;;;;10.63;9.00;;;17.20;99.90;;;;;;6294506;28;20056;-72
2022/07/01 05:37:27;;;;;;;11.10;9.98;;;17.20;99.90;;;;;;6296088;28;20054;-71
2022/07/01 05:40:30;;;;;;;10.68;9.63;;;17.20;99.90;;;;;;6295892;28;20056;-71
2022/07/01 05:43:32;;;;;;;9.05;7.57;;;17.20;99.90;;;;;;6294836;28;20040;-71
2022/07/01 05:46:34;;;;;;;11.75;9.20;;;17.30;99.90;;;;;;6294966;28;20409;-72
2022/07/01 05:49:36;;;;;;;12.82;11.48;;;17.30;99.90;;;;;;6296171;28;20048;-71
2022/07/01 05:52:38;;;;;;;19.38;13.88;;;17.30;99.90;;;;;;6294064;28;20077;-71
2022/07/01 05:55:42;;;;;;;21.98;17.15;;;17.50;99.90;;;;;;6294575;28;20049;-71
2022/07/01 05:58:44;;;;;;;19.50;15.93;;;17.60;99.90;;;;;;6296051;28;20048;-71
2022/07/01 06:01:46;;;;;;;19.95;16.88;;;17.70;99.90;;;;;;6295018;28;20048;-72
2022/07/01 06:04:48;;;;;;;23.65;18.70;;;17.60;99.90;;;;;;6295340;28;20083;-72
2022/07/01 06:07:50;;;;;;;21.98;18.27;;;17.60;99.90;;;;;;6294784;28;20045;-71
2022/07/01 06:10:54;;;;;;;25.50;16.13;;;17.50;99.90;;;;;;6294504;28;20048;-70
2022/07/01 06:13:56;;;;;;;1999.90;298.67;;;17.50;99.90;;;;;;6295642;28;20044;-74
2022/07/01 06:16:58;;;;;;;22.40;19.10;;;18.40;99.90;;;;;;6295213;28;20044;-70
2022/07/01 06:20:00;;;;;;;15.02;10.93;;;18.70;99.90;;;;;;6294904;28;20501;-71
2022/07/01 06:23:01;;;;;;;19.30;16.25;;;18.70;99.90;;;;;;6292481;28;20069;-70
2022/07/01 06:26:05;;;;;;;15.55;13.93;;;19.20;99.90;;;;;;6295644;28;20067;-70
2022/07/01 06:29:07;;;;;;;12.90;9.85;;;19.30;99.90;;;;;;6292131;28;20507;-71
2022/07/01 06:32:09;;;;;;;12.15;8.88;;;19.60;99.90;;;;;;6299205;28;20053;-70
2022/07/01 06:35:11;;;;;;;15.50;10.57;;;19.90;99.90;;;;;;6300513;28;20051;-70
2022/07/01 06:38:13;;;;;;;14.10;11.90;;;19.90;99.90;;;;;;6300221;28;20493;-70
2022/07/01 06:41:28;;;;;;;8.40;6.35;;;20.10;99.90;;;;;;6297986;28;20071;-70
2022/07/01 06:44:30;;;;;;;12.15;6.30;;;20.00;99.90;;;;;;6299144;28;20500;-70
2022/07/01 06:47:32;;;;;;;14.27;12.05;;;19.90;99.90;;;;;;6297549;28;20052;-70
2022/07/01 06:50:34;;;;;;;9.13;6.25;;;19.90;99.90;;;;;;6299539;28;20040;-70
2022/07/01 06:53:36;;;;;;;7.97;4.63;;;19.80;99.90;;;;;;6296354;28;20048;-70
2022/07/01 06:56:39;;;;;;;13.02;11.40;;;19.60;99.90;;;;;;6297569;28;20047;-70
2022/07/01 06:59:41;;;;;;;21.23;18.40;;;20.00;99.90;;;;;;6296907;28;20052;-70
2022/07/01 07:02:43;;;;;;;12.80;11.43;;;20.40;99.90;;;;;;6288770;28;20056;-70
2022/07/01 07:05:45;;;;;;;17.95;14.80;;;20.50;99.90;;;;;;6295849;28;20045;-70
2022/07/01 07:08:47;;;;;;;16.50;13.15;;;20.60;99.90;;;;;;6299036;28;20044;-70
2022/07/01 07:11:50;;;;;;;18.42;16.10;;;20.90;99.90;;;;;;6298761;28;20048;-70
2022/07/01 07:14:53;;;;;;;8.85;6.40;;;21.00;99.90;;;;;;6298242;28;20036;-70
2022/07/01 07:17:57;;;;;;;10.40;9.23;;;21.10;99.90;;;;;;6297350;28;21484;-70
2022/07/01 07:20:59;;;;;;;16.73;12.40;;;21.20;99.90;;;;;;6298444;28;20105;-70
2022/07/01 07:24:01;;;;;;;16.60;14.30;;;21.50;99.90;;;;;;6299013;28;20049;-70
2022/07/01 07:35:46;;;;;;;12.40;9.45;;;21.60;99.90;;;;;;5928990;29;20463;-71
2022/07/01 07:38:49;;;;;;;16.30;13.38;;;21.60;99.90;;;;;;6070635;28;20039;-70
2022/07/01 07:41:51;;;;;;;7.85;5.40;;;21.40;99.90;;;;;;6245941;28;20037;-71
2022/07/01 07:44:53;;;;;;;11.65;8.38;;;21.40;99.90;;;;;;6296769;28;20131;-70
2022/07/01 07:47:55;;;;;;;7.78;6.15;;;21.60;99.90;;;;;;6297423;28;20059;-71
2022/07/01 07:50:57;;;;;;;14.10;11.00;;;21.80;99.90;;;;;;6296470;28;20053;-71
2022/07/01 07:54:02;;;;;;;6.43;4.93;;;21.70;99.90;;;;;;6298231;28;20044;-71
2022/07/01 07:57:04;;;;;;;10.55;8.18;;;21.90;99.90;;;;;;6295256;28;20050;-70
2022/07/01 08:00:08;;;;;;;10.73;9.18;;;22.10;99.90;;;;;;6298306;28;20056;-70
2022/07/01 08:03:10;;;;;;;12.23;9.25;;;22.10;99.90;;;;;;6296884;28;20052;-70
2022/07/01 08:06:13;;;;;;;12.45;11.15;;;21.80;99.90;;;;;;6295749;28;20417;-71
2022/07/01 08:09:16;;;;;;;7.72;6.05;;;21.60;99.90;;;;;;6295469;28;20079;-71
2022/07/01 08:12:18;;;;;;;6.97;6.13;;;21.40;99.90;;;;;;6278612;28;20090;-71
2022/07/01 08:15:20;;;;;;;10.75;8.60;;;21.50;99.90;;;;;;6297911;28;20059;-70
2022/07/01 08:18:22;;;;;;;11.43;10.13;;;21.70;99.90;;;;;;6289706;28;20063;-71
2022/07/01 08:21:25;;;;;;;14.10;12.60;;;21.90;99.90;;;;;;6297765;28;20045;-70
2022/07/01 08:24:28;;;;;;;8.83;5.03;;;21.80;99.90;;;;;;6295981;28;20417;-71
2022/07/01 08:27:30;;;;;;;8.82;5.40;;;21.90;99.90;;;;;;6297081;28;20052;-71
2022/07/01 08:30:33;;;;;;;9.55;7.13;;;22.10;99.90;;;;;;6296100;28;20071;-70
2022/07/01 08:33:37;;;;;;;11.68;10.32;;;22.10;99.90;;;;;;6295083;28;20158;-71
2022/07/01 08:36:39;;;;;;;9.90;7.35;;;22.10;99.90;;;;;;6295694;28;20053;-71
2022/07/01 08:39:42;;;;;;;11.55;7.47;;;22.20;99.90;;;;;;6295835;28;20135;-71
2022/07/01 08:42:44;;;;;;;13.18;6.78;;;22.40;99.90;;;;;;6297270;28;20485;-71
2022/07/01 08:45:46;;;;;;;5.93;4.85;;;22.30;99.90;;;;;;6292182;28;20051;-71
2022/07/01 08:48:48;;;;;;;10.43;7.53;;;22.20;99.90;;;;;;6294863;28;20473;-71
2022/07/01 08:51:50;;;;;;;9.80;8.77;;;22.30;99.90;;;;;;6295786;28;20045;-70
2022/07/01 08:54:53;;;;;;;6.28;4.60;;;22.30;99.90;;;;;;6296650;28;20044;-70
2022/07/01 08:57:55;;;;;;;12.00;7.60;;;22.20;99.90;;;;;;6296000;28;20059;-71
2022/07/01 09:01:13;;;;;;;5.53;4.20;;;22.50;99.90;;;;;;6295770;28;20481;-71
2022/07/01 09:04:18;;;;;;;11.50;9.60;;;22.40;99.90;;;;;;6296546;28;20063;-71
2022/07/01 09:07:19;;;;;;;12.80;9.85;;;22.10;99.90;;;;;;6295905;28;20063;-71
2022/07/01 09:10:23;;;;;;;7.75;6.75;;;21.80;99.90;;;;;;6296724;28;20048;-71
2022/07/01 09:13:25;;;;;;;8.80;6.93;;;21.70;99.90;;;;;;6297033;28;20047;-70
2022/07/01 09:16:27;;;;;;;7.43;5.65;;;21.70;99.90;;;;;;6296002;28;20051;-70
2022/07/01 09:19:32;;;;;;;10.25;8.20;;;21.80;99.90;;;;;;6288432;28;20048;-70
2022/07/01 09:22:36;;;;;;;4.97;3.72;;;21.80;99.90;;;;;;6295869;28;20066;-70
2022/07/01 09:25:43;;;;;;;7.57;4.20;;;21.80;99.90;;;;;;6294962;28;20500;-70
2022/07/01 09:28:54;;;;;;;5.57;3.40;;;22.00;99.90;;;;;;6285282;28;20049;-71
2022/07/01 09:31:56;;;;;;;7.20;5.30;;;22.00;99.90;;;;;;6282176;28;20059;-71
2022/07/01 09:34:58;;;;;;;12.98;8.93;;;22.10;99.90;;;;;;6291045;28;20482;-71
2022/07/01 09:38:00;;;;;;;10.15;7.30;;;22.00;99.90;;;;;;6282184;28;20052;-71
2022/07/01 09:41:11;;;;;;;6.80;5.60;;;22.10;99.90;;;;;;6293977;28;20048;-71
2022/07/01 09:44:13;;;;;;;7.80;5.80;;;22.20;99.90;;;;;;6294723;28;20114;-71
2022/07/01 09:47:15;;;;;;;13.30;10.63;;;22.20;99.90;;;;;;6295165;28;20123;-70
2022/07/01 09:50:17;;;;;;;8.93;6.50;;;22.10;99.90;;;;;;6296056;28;20424;-71
2022/07/01 09:53:19;;;;;;;8.70;5.20;;;22.40;99.90;;;;;;6295241;28;20044;-71
2022/07/01 09:56:23;;;;;;;10.15;7.88;;;22.60;99.90;;;;;;6294831;28;20048;-71
2022/07/01 09:59:24;;;;;;;;;;;22.70;99.90;;;;;;6296358;28;20052;-71
2022/07/01 10:02:30;;;;;;;4.40;3.28;;;22.50;99.90;;;;;;6293654;28;20385;-71
2022/07/01 10:05:36;;;;;;;8.15;6.15;;;22.40;99.90;;;;;;6276628;28;20048;-71
2022/07/01 10:08:50;;;;;;;5.72;3.70;;;22.40;99.90;;;;;;6300245;28;20134;-71
2022/07/01 10:12:08;;;;;;;;;;;22.50;99.90;;;;;;6299320;28;20076;-71
2022/07/01 10:15:13;;;;;;;7.53;5.38;;;22.40;99.90;;;;;;6301080;28;19927;-71
2022/07/01 10:18:22;;;;;;;5.78;4.55;;;22.50;99.90;;;;;;6280081;28;20057;-70
2022/07/01 10:21:28;;;;;;;5.65;3.50;;;22.90;99.90;;;;;;6292939;28;20056;-71
2022/07/01 10:24:30;;;;;;;4.22;3.05;;;23.00;99.90;;;;;;6297523;28;20056;-70
2022/07/01 10:27:33;;;;;;;3.95;2.78;;;23.00;99.90;;;;;;6299570;28;20052;-70
2022/07/01 10:30:35;;;;;;;8.38;4.32;;;23.30;99.90;;;;;;6298706;28;20048;-70
2022/07/01 10:33:43;;;;;;;5.03;3.65;;;23.30;99.90;;;;;;6289726;28;20059;-71
2022/07/01 10:36:45;;;;;;;6.82;4.28;;;23.40;99.90;;;;;;6299913;28;20048;-71
2022/07/01 10:39:58;;;;;;;7.35;4.78;;;23.30;99.90;;;;;;6299262;28;20528;-71
2022/07/01 10:43:01;;;;;;;6.95;3.60;;;23.10;99.90;;;;;;6296263;28;20059;-71
2022/07/01 10:46:03;;;;;;;6.25;4.05;;;23.00;99.90;;;;;;6298778;28;20052;-71
2022/07/01 10:49:05;;;;;;;4.32;2.67;;;22.80;99.90;;;;;;6298781;28;20506;-71
2022/07/01 10:52:09;;;;;;;5.13;3.10;;;22.90;99.90;;;;;;6296387;28;20125;-71
2022/07/01 10:55:11;;;;;;;6.47;3.63;;;23.20;99.90;;;;;;6298630;28;20075;-71
2022/07/01 10:58:15;;;;;;;6.05;4.07;;;23.20;99.90;;;;;;6298670;28;20056;-71
2022/07/01 11:01:19;;;;;;;5.32;2.97;;;23.30;99.90;;;;;;6296675;28;20066;-71
2022/07/01 11:04:21;;;;;;;7.78;2.92;;;23.30;99.90;;;;;;6295554;28;20067;-71
2022/07/01 11:07:26;;;;;;;3.83;2.80;;;23.50;99.90;;;;;;6297290;28;20051;-71
2022/07/01 11:10:28;;;;;;;3.08;2.50;;;23.50;99.90;;;;;;6298035;28;20055;-71
2022/07/01 11:13:31;;;;;;;3.08;2.33;;;23.60;99.90;;;;;;6293229;28;20045;-71
2022/07/01 11:16:35;;;;;;;5.30;2.65;;;23.60;99.90;;;;;;6296670;28;20049;-71
2022/07/01 11:19:37;;;;;;;5.40;2.70;;;23.60;99.90;;;;;;6295960;28;20052;-71
2022/07/01 11:22:39;;;;;;;5.38;3.20;;;23.60;99.90;;;;;;6297862;28;20051;-71
2022/07/01 11:25:41;;;;;;;5.88;3.47;;;23.60;99.60;;;;;;6297320;28;20102;-71
2022/07/01 11:28:44;;;;;;;9.25;3.35;;;23.40;99.90;;;;;;6293497;28;20185;-71
2022/07/01 11:31:47;;;;;;;7.65;3.33;;;23.60;99.90;;;;;;6297504;28;20493;-71
2022/07/01 11:34:50;;;;;;;7.77;3.87;;;23.30;99.90;;;;;;6296230;28;20496;-71
2022/07/01 11:41:24;;;;;;;8.02;3.75;;;23.50;99.90;;;;;;6296944;28;20068;-70
2022/07/01 11:44:32;;;;;;;6.32;3.22;;;23.30;99.80;;;;;;6296507;28;20047;-71
2022/07/01 11:47:34;;;;;;;8.93;3.53;;;23.30;99.90;;;;;;6287785;28;20047;-72
2022/07/01 11:50:37;;;;;;;11.20;2.83;;;23.30;99.70;;;;;;6295655;28;20050;-71
2022/07/01 11:53:40;;;;;;;5.53;2.75;;;23.50;99.90;;;;;;6297101;28;20661;-72
2022/07/01 11:56:45;;;;;;;7.68;3.47;;;23.70;99.70;;;;;;6294515;28;20139;-71
2022/07/01 11:59:50;;;;;;;5.10;2.45;;;23.70;99.60;;;;;;6295906;28;20055;-72
2022/07/01 12:02:52;;;;;;;4.57;2.60;;;23.60;99.90;;;;;;6296851;28;20441;-72
2022/07/01 12:05:54;;;;;;;6.65;3.15;;;23.60;99.80;;;;;;6293189;28;20052;-72
2022/07/01 12:08:58;;;;;;;5.90;3.33;;;23.80;99.70;;;;;;6294373;28;20345;-72
2022/07/01 12:12:00;;;;;;;5.28;3.25;;;23.70;98.90;;;;;;6294569;28;20075;-72
2022/07/01 12:15:04;;;;;;;7.45;2.53;;;23.60;99.50;;;;;;6294096;28;20619;-72
2022/07/01 12:18:07;;;;;;;5.85;2.50;;;23.70;99.90;;;;;;6291643;28;20250;-72
2022/07/01 12:21:08;;;;;;;5.57;2.78;;;23.60;99.60;;;;;;6291308;28;20044;-72
2022/07/01 12:24:12;;;;;;;3.65;1.85;;;23.50;99.90;;;;;;6294575;28;20053;-72
2022/07/01 12:27:14;;;;;;;;;;;23.70;99.90;;;;;;6295644;28;20044;-71
2022/07/01 12:30:32;;;;;;;4.18;2.40;;;23.60;99.30;;;;;;6293622;28;19920;-71
2022/07/01 12:33:39;;;;;;;6.00;1.80;;;23.70;99.90;;;;;;6273366;28;20151;-71
2022/07/01 12:36:48;;;;;;;6.90;1.77;;;23.20;97.30;;;;;;6288942;28;20048;-73
2022/07/01 12:39:51;;;;;;;5.03;1.20;;;22.50;99.50;;;;;;6294036;28;20048;-73
2022/07/01 12:42:53;;;;;;;3.17;1.17;;;22.30;99.20;;;;;;6293906;28;20051;-73
2022/07/01 12:45:58;;;;;;;5.35;1.30;;;22.00;99.90;;;;;;6292489;28;20051;-75
2022/07/01 12:49:00;;;;;;;6.68;1.58;;;22.20;99.90;;;;;;6294575;28;20056;-73
2022/07/01 12:52:02;;;;;;;5.40;2.00;;;22.30;99.90;;;;;;6292618;28;20048;-74
2022/07/01 12:55:15;;;;;;;5.47;1.50;;;22.10;99.90;;;;;;6292814;28;20048;-75
2022/07/01 12:58:18;;;;;;;4.78;1.75;;;22.20;99.90;;;;;;6285115;28;20049;-77
2022/07/01 13:01:22;;;;;;;7.70;2.75;;;22.20;99.90;;;;;;6276144;28;20057;-73
2022/07/01 13:04:25;;;;;;;6.60;1.73;;;22.40;99.90;;;;;;6294853;28;20044;-73
2022/07/01 13:07:27;;;;;;;4.40;1.40;;;22.40;99.90;;;;;;6294448;28;20547;-73
2022/07/01 13:10:29;;;;;;;3.50;1.60;;;22.40;99.90;;;;;;6295978;28;20052;-73
2022/07/01 13:13:31;;;;;;;6.25;1.48;;;22.40;99.90;;;;;;6293882;28;20064;-73
2022/07/01 13:16:35;;;;;;;6.78;2.42;;;22.70;99.90;;;;;;6288130;28;20056;-72
2022/07/01 13:19:37;;;;;;;3.55;1.13;;;22.90;99.90;;;;;;6288678;28;20056;-72
2022/07/01 13:22:39;;;;;;;6.05;1.40;;;23.10;99.90;;;;;;6296105;28;20137;-72
2022/07/01 13:25:41;;;;;;;6.07;1.55;;;23.30;99.90;;;;;;6296294;28;20093;-72
2022/07/01 13:28:43;;;;;;;3.45;0.95;;;23.30;99.90;;;;;;6296150;28;20408;-72
2022/07/01 13:31:47;;;;;;;3.83;0.90;;;23.30;99.90;;;;;;6295356;28;20413;-72
2022/07/01 13:34:48;;;;;;;3.78;0.93;;;23.50;99.90;;;;;;6294929;28;20052;-72
2022/07/01 13:37:51;;;;;;;2.15;0.90;;;23.60;99.20;;;;;;6296299;28;20048;-72
2022/07/01 13:40:53;;;;;;;2.50;0.77;;;23.80;99.50;;;;;;6293760;28;20049;-72
2022/07/01 13:43:55;;;;;;;4.55;1.20;;;24.00;97.40;;;;;;6285665;28;20519;-72
2022/07/01 13:46:59;;;;;;;3.75;1.02;;;23.90;98.30;;;;;;6271175;28;20059;-72
2022/07/01 13:50:01;;;;;;;2.83;0.95;;;23.80;97.50;;;;;;6270526;28;20059;-72
2022/07/01 13:53:03;;;;;;;4.40;0.73;;;23.60;98.50;;;;;;6283062;28;20045;-72
2022/07/01 13:56:05;;;;;;;2.55;0.70;;;23.50;97.80;;;;;;6295925;28;20412;-72
2022/07/01 13:59:07;;;;;;;3.53;0.90;;;23.50;97.40;;;;;;6294909;28;20052;-72
2022/07/01 14:02:11;;;;;;;4.05;0.90;;;23.50;97.70;;;;;;6294586;28;20056;-72
2022/07/01 14:05:13;;;;;;;3.45;0.80;;;23.30;97.80;;;;;;6295872;28;20433;-72
2022/07/01 14:08:15;;;;;;;4.93;1.17;;;23.20;99.10;;;;;;6295935;28;20056;-71
2022/07/01 14:11:17;;;;;;;2.08;0.70;;;23.20;98.20;;;;;;6295871;28;20049;-72
2022/07/01 14:14:19;;;;;;;4.10;0.73;;;23.60;98.50;;;;;;6295873;28;20045;-72
2022/07/01 14:17:22;;;;;;;3.72;0.80;;;23.80;98.10;;;;;;6281068;28;20049;-72
2022/07/01 14:20:24;;;;;;;4.28;1.10;;;23.90;96.00;;;;;;6269136;28;20060;-72
2022/07/01 14:23:26;;;;;;;6.22;1.45;;;23.70;97.10;;;;;;6269270;28;20053;-72
2022/07/01 14:26:28;;;;;;;3.33;0.70;;;23.60;96.70;;;;;;6277741;28;20379;-73
2022/07/01 14:29:30;;;;;;;3.17;0.70;;;23.70;96.40;;;;;;6295586;28;20048;-72
2022/07/01 14:32:35;;;;;;;2.22;1.00;;;23.90;96.90;;;;;;6295414;28;20255;-72
2022/07/01 14:35:37;;;;;;;2.85;0.52;;;24.20;96.00;;;;;;6294752;28;20496;-72
2022/07/01 14:38:39;;;;;;;1.98;0.63;;;24.20;95.20;;;;;;6295703;28;20067;-72
2022/07/01 14:41:41;;;;;;;2.97;0.70;;;24.20;95.00;;;;;;6292468;28;20052;-72
2022/07/01 14:44:43;;;;;;;3.65;0.70;;;23.90;95.70;;;;;;6286720;28;20519;-72
2022/07/01 14:47:46;;;;;;;2.53;0.68;;;23.80;95.40;;;;;;6295140;28;20040;-72
2022/07/01 14:50:48;;;;;;;1.98;0.68;;;23.80;96.50;;;;;;6295748;28;20041;-72
2022/07/01 14:53:50;;;;;;;2.45;0.60;;;23.90;96.40;;;;;;6298564;28;20048;-72
2022/07/01 14:56:52;;;;;;;3.75;0.93;;;23.90;96.80;;;;;;6298462;28;20044;-72
2022/07/01 14:59:54;;;;;;;5.25;1.15;;;24.20;96.30;;;;;;6299579;28;20489;-72
2022/07/01 15:02:57;;;;;;;4.78;0.80;;;24.20;95.90;;;;;;6298823;28;20075;-72
2022/07/01 15:05:59;;;;;;;2.38;0.70;;;24.10;95.80;;;;;;6298592;28;20477;-72
2022/07/01 15:09:01;;;;;;;1.48;0.50;;;24.10;96.10;;;;;;6283279;28;20414;-72
2022/07/01 15:12:04;;;;;;;4.20;0.85;;;24.10;96.60;;;;;;6274844;28;20041;-72
2022/07/01 15:15:07;;;;;;;2.33;0.70;;;24.20;95.60;;;;;;6279913;28;20048;-72
2022/07/01 15:18:10;;;;;;;;;;;24.20;96.10;;;;;;6299951;28;20049;-72
2022/07/01 15:21:12;;;;;;;3.85;1.02;;;24.00;96.10;;;;;;6299286;28;19920;-72
2022/07/01 15:24:14;;;;;;;1.80;0.50;;;24.00;96.30;;;;;;6297780;28;20056;-71
2022/07/01 15:27:16;;;;;;;1.92;0.70;;;23.90;96.70;;;;;;6299281;28;20044;-72
2022/07/01 15:30:18;;;;;;;3.03;0.60;;;23.90;96.80;;;;;;6299048;28;20055;-72
2022/07/01 15:33:22;;;;;;;4.07;0.85;;;23.90;96.30;;;;;;6297819;28;20075;-72
2022/07/01 15:36:24;;;;;;;;;;;23.90;95.70;;;;;;6299156;28;20056;-72
2022/07/01 15:39:25;;;;;;;3.45;0.93;;;24.00;95.50;;;;;;6299254;28;19930;-72
2022/07/01 15:42:28;;;;;;;5.05;1.08;;;23.70;96.20;;;;;;6278630;28;20057;-72
2022/07/01 15:45:30;;;;;;;1.67;0.40;;;23.70;95.90;;;;;;6273864;28;20049;-72
2022/07/01 15:48:33;;;;;;;3.88;0.90;;;23.80;96.70;;;;;;6273809;28;20048;-72
2022/07/01 15:51:35;;;;;;;;;;;24.00;96.10;;;;;;6281126;28;20045;-72
2022/07/01 15:54:37;;;;;;;4.93;0.75;;;23.60;96.20;;;;;;6298599;28;19924;-72
2022/07/01 15:57:40;;;;;;;2.47;0.80;;;23.90;96.90;;;;;;6297236;28;20040;-72
2022/07/01 16:00:43;;;;;;;4.90;1.23;;;23.90;96.30;;;;;;6297173;28;20413;-71
2022/07/01 16:03:49;;;;;;;3.80;1.00;;;24.00;94.60;;;;;;6297978;28;20044;-72
2022/07/01 16:06:52;;;;;;;4.20;1.10;;;24.30;95.20;;;;;;6298677;28;20049;-72
2022/07/01 16:09:59;;;;;;;3.55;1.02;;;24.10;95.60;;;;;;6297917;28;20405;-72
2022/07/01 16:13:05;;;;;;;4.57;1.27;;;24.00;96.10;;;;;;6298195;28;20044;-72